Hovedside
METAR-TAF:

METAR-TAF

Lufthavner :

Vamdrup

Kolding, Danmark

breddegrad: 55-26N, lengdegrad: 009-20E, høyde over havet: 44 m

Gjeldene værobservasjon

Denne rapporten ble laget for 23 minutter siden, klokken 06:50 UTC
Vind 15 kt fra Øst
Temperatur 12°C
Luftfuktighet 67%
Trykk 1015 hPa
Sikt 10 km eller mer
ingen skyer under 1500 m og ingen bygeskyer

METAR: EKVD 230650Z 10015KT CAVOK 12/06 Q1015

Tid: 09:13 (07:13 UTC)

Varsel

Denne rapporten ble laget for 16 minutter siden, klokken 06:57 UTC
Varsel gyldig fra 23. klokken 07 UTC til 23. klokken 15 UTC
Vind 18 kt fra Øst
Sikt 10 km eller mer
ingen skyer under 1500 m og ingen bygeskyer
Midlertidig
fra 23. klokken 07 UTC til 23. klokken 10 UTC
Vind 20 kt fra Øst med vindkast opp mot 32 kt
Midlertidig
fra 23. klokken 10 UTC til 23. klokken 15 UTC
Vind 25 kt fra Øst-sørøst med vindkast opp mot 40 kt

TAF: EKVD 230657Z 2307/2315 10018KT CAVOK TEMPO 2307/2310 10020G32KT TEMPO 2310/2315 11025G40KT

Værobservasjoner og værvarsel for over 4000 flyplasser (METAR- og TAF-rapporter).

Tilgjengelige stasjoner er representert av de røde og gule prikkene på kartet.

Hold musepekeren over prikken for å se navnet på stasjonen.

Klikk så for å se værobservasjoner og -varsler.

For å forandre kartet kan du klikke på den grønne knappen med svart kryss for å zoome inn, på den grønne knappen med strek for å zoome ut, eller på de grønne pilene for å se tilstøtende kart.


METAR-TAF: